createdAt,value
2023-04-29T00:30:44.973Z,100.00
2023-04-29T00:34:46.414Z,100.00
2023-04-29T00:38:47.841Z,100.00
2023-04-29T00:42:49.354Z,100.00
2023-04-29T00:46:50.764Z,100.00
2023-04-29T00:50:53.043Z,100.00
2023-04-29T00:54:54.701Z,100.00
2023-04-29T00:58:57.345Z,100.00
2023-04-29T01:02:59.751Z,100.00
2023-04-29T01:07:21.697Z,100.00
2023-04-29T01:11:28.849Z,100.00
2023-04-29T01:15:40.582Z,100.00
2023-04-29T01:19:47.839Z,100.00
2023-04-29T01:23:55.831Z,100.00
2023-04-29T01:28:03.913Z,100.00
2023-04-29T01:32:11.577Z,100.00
2023-04-29T01:36:23.670Z,100.00
2023-04-29T01:40:43.088Z,100.00
2023-04-29T01:44:46.426Z,100.00
2023-04-29T01:48:47.829Z,100.00
2023-04-29T01:52:49.261Z,100.00
2023-04-29T01:56:51.973Z,100.00
2023-04-29T02:00:53.802Z,100.00
2023-04-29T02:04:55.887Z,100.00
2023-04-29T02:09:00.544Z,100.00
2023-04-29T02:13:02.584Z,100.00
2023-04-29T02:17:04.053Z,100.00
2023-04-29T02:21:05.656Z,100.00
2023-04-29T02:25:07.420Z,100.00
2023-04-29T02:29:09.999Z,100.00
2023-04-29T02:33:11.566Z,100.00
2023-04-29T02:37:13.067Z,100.00
2023-04-29T02:41:18.192Z,100.00
2023-04-29T02:45:19.706Z,100.00
2023-04-29T02:49:21.390Z,100.00
2023-04-29T02:53:23.318Z,100.00
2023-04-29T02:57:24.725Z,100.00
2023-04-29T03:01:26.276Z,100.00
2023-04-29T03:05:27.794Z,100.00
2023-04-29T03:09:29.379Z,100.00
2023-04-29T03:13:30.841Z,100.00
2023-04-29T03:17:32.876Z,100.00
2023-04-29T03:21:34.338Z,100.00
2023-04-29T03:25:36.954Z,100.00
2023-04-29T03:29:38.475Z,100.00
2023-04-29T03:33:39.918Z,100.00
2023-04-29T03:37:44.153Z,100.00
2023-04-29T03:41:47.729Z,100.00
2023-04-29T03:45:49.253Z,100.00
2023-04-29T03:49:50.994Z,100.00
2023-04-29T03:53:54.504Z,100.00
2023-04-29T03:57:55.989Z,100.00
2023-04-29T04:01:58.471Z,100.00
2023-04-29T04:05:59.962Z,100.00
2023-04-29T04:10:01.536Z,100.00
2023-04-29T04:14:03.087Z,100.00
2023-04-29T04:18:04.552Z,100.00
2023-04-29T04:22:06.098Z,100.00
2023-04-29T04:26:07.683Z,100.00
2023-04-29T04:30:09.613Z,100.00
2023-04-29T04:34:11.130Z,100.00
2023-04-29T04:38:12.629Z,100.00
2023-04-29T04:42:14.381Z,100.00
2023-04-29T04:46:17.394Z,100.00
2023-04-29T04:50:20.228Z,100.00
2023-04-29T04:54:21.648Z,100.00
2023-04-29T04:58:23.090Z,100.00
2023-04-29T05:02:24.810Z,100.00
2023-04-29T05:06:26.674Z,100.00
2023-04-29T05:10:28.149Z,100.00
2023-04-29T05:14:29.550Z,100.00
2023-04-29T05:18:30.966Z,100.00
2023-04-29T05:22:32.487Z,100.00
2023-04-29T05:26:33.996Z,100.00
2023-04-29T05:30:35.698Z,100.00
2023-04-29T05:34:37.304Z,100.00
2023-04-29T05:38:39.263Z,100.00
2023-04-29T05:42:40.673Z,100.00
2023-04-29T05:46:42.295Z,100.00
2023-04-29T05:50:44.253Z,100.00
2023-04-29T05:54:45.744Z,100.00
2023-04-29T05:58:47.159Z,100.00
2023-04-29T06:02:58.102Z,100.00
2023-04-29T06:07:00.451Z,100.00
2023-04-29T06:11:03.541Z,100.00
2023-04-29T06:15:05.746Z,100.00
2023-04-29T06:19:07.182Z,100.00
2023-04-29T06:23:08.791Z,100.00
2023-04-29T06:27:12.840Z,100.00
2023-04-29T06:31:14.331Z,100.00
2023-04-29T06:35:16.044Z,100.00
2023-04-29T06:39:17.470Z,100.00
2023-04-29T06:43:18.884Z,100.00
2023-04-29T06:47:20.478Z,100.00
2023-04-29T06:51:21.991Z,100.00
2023-04-29T06:55:23.389Z,100.00
2023-04-29T06:59:24.845Z,100.00
2023-04-29T07:03:26.429Z,100.00
2023-04-29T07:07:28.081Z,100.00
2023-04-29T07:11:29.808Z,100.00
2023-04-29T07:15:34.524Z,100.00
2023-04-29T07:19:36.150Z,100.00
2023-04-29T07:23:37.578Z,100.00
2023-04-29T07:27:39.109Z,100.00
2023-04-29T07:31:40.546Z,100.00
2023-04-29T07:35:43.222Z,100.00
2023-04-29T07:39:44.741Z,100.00
2023-04-29T07:43:46.207Z,100.00
2023-04-29T07:47:48.776Z,100.00
2023-04-29T07:51:50.361Z,100.00
2023-04-29T07:55:51.857Z,100.00
2023-04-29T07:59:53.961Z,100.00
2023-04-29T08:03:55.654Z,100.00
2023-04-29T08:07:58.667Z,100.00
2023-04-29T08:12:00.080Z,100.00
2023-04-29T08:16:01.605Z,100.00
2023-04-29T08:20:03.588Z,100.00
2023-04-29T08:24:05.873Z,100.00
2023-04-29T08:28:07.590Z,100.00
2023-04-29T08:32:09.150Z,100.00
2023-04-29T08:36:10.806Z,100.00
2023-04-29T08:40:13.560Z,100.00
2023-04-29T08:44:17.285Z,100.00
2023-04-29T08:48:19.591Z,100.00
2023-04-29T08:52:21.127Z,100.00
2023-04-29T08:56:23.170Z,100.00
2023-04-29T09:00:25.235Z,100.00
2023-04-29T09:04:32.666Z,100.00
2023-04-29T09:08:34.219Z,100.00
2023-04-29T09:12:36.178Z,100.00
2023-04-29T09:16:38.821Z,100.00
2023-04-29T09:20:40.314Z,100.00
2023-04-29T09:24:43.723Z,100.00
2023-04-29T09:28:45.332Z,100.00
2023-04-29T09:33:03.670Z,100.00
2023-04-29T09:37:24.509Z,100.00
2023-04-29T09:41:25.929Z,100.00
2023-04-29T09:45:33.679Z,100.00
2023-04-29T09:49:44.680Z,100.00
2023-04-29T09:53:46.540Z,100.00
2023-04-29T09:57:48.042Z,100.00
2023-04-29T10:01:51.454Z,100.00
2023-04-29T10:05:53.508Z,100.00
2023-04-29T10:09:55.940Z,100.00
2023-04-29T10:13:58.575Z,100.00
2023-04-29T10:18:12.417Z,100.00
2023-04-29T10:22:22.570Z,100.00
2023-04-29T10:26:28.471Z,100.00
2023-04-29T10:30:31.724Z,100.00
2023-04-29T10:34:34.932Z,100.00
2023-04-29T10:38:41.655Z,100.00
2023-04-29T10:42:48.070Z,100.00
2023-04-29T10:46:49.919Z,100.00
2023-04-29T10:50:51.298Z,100.00
2023-04-29T10:55:12.377Z,100.00
2023-04-29T10:59:16.053Z,100.00
2023-04-29T11:03:59.874Z,100.00
2023-04-29T11:08:11.005Z,100.00
2023-04-29T11:12:13.531Z,100.00
2023-04-29T11:16:15.134Z,100.00
2023-04-29T11:20:16.785Z,100.00
2023-04-29T11:24:18.252Z,100.00
2023-04-29T11:28:20.209Z,100.00
2023-04-29T11:32:23.186Z,100.00
2023-04-29T11:36:25.659Z,100.00
2023-04-29T11:40:27.209Z,100.00
2023-04-29T11:44:28.645Z,100.00
2023-04-29T11:48:30.323Z,100.00
2023-04-29T11:52:32.703Z,100.00
2023-04-29T11:56:34.190Z,100.00
2023-04-29T12:00:36.106Z,100.00
2023-04-29T12:04:48.252Z,100.00
2023-04-29T12:08:51.140Z,100.00
2023-04-29T12:12:52.969Z,100.00
2023-04-29T12:16:54.506Z,100.00
2023-04-29T12:20:56.607Z,100.00
2023-04-29T12:24:58.130Z,100.00
2023-04-29T12:28:59.759Z,100.00
2023-04-29T12:33:02.524Z,100.00
2023-04-29T12:37:03.966Z,100.00
2023-04-29T12:41:07.821Z,100.00
2023-04-29T12:45:09.658Z,100.00
2023-04-29T12:49:11.251Z,100.00
2023-04-29T12:53:13.387Z,100.00
2023-04-29T12:57:14.789Z,100.00
2023-04-29T13:01:18.381Z,100.00
2023-04-29T13:05:20.617Z,100.00
2023-04-29T13:09:22.134Z,100.00
2023-04-29T13:13:25.399Z,100.00
2023-04-29T13:17:26.912Z,100.00
2023-04-29T13:21:28.580Z,100.00
2023-04-29T13:25:30.049Z,100.00
2023-04-29T13:29:31.637Z,100.00
2023-04-29T13:33:33.128Z,100.00
2023-04-29T13:37:34.800Z,100.00
2023-04-29T13:41:36.352Z,100.00
2023-04-29T13:45:41.308Z,100.00
2023-04-29T13:50:19.661Z,100.00
2023-04-29T14:02:25.103Z,100.00
2023-04-29T14:06:28.285Z,100.00
2023-04-29T14:10:29.814Z,100.00
2023-04-29T14:14:31.365Z,100.00
2023-04-29T14:18:33.067Z,100.00
2023-04-29T14:22:34.476Z,100.00
2023-04-29T14:26:37.006Z,100.00
2023-04-29T14:30:38.567Z,100.00
2023-04-29T14:34:40.004Z,100.00
2023-04-29T14:38:41.457Z,100.00
2023-04-29T14:42:42.989Z,100.00
2023-04-29T14:46:44.508Z,100.00
2023-04-29T14:50:46.194Z,92.61
2023-04-29T14:54:47.652Z,83.03
2023-04-29T14:58:49.109Z,74.54
2023-04-29T15:02:50.715Z,70.73
2023-04-29T15:06:52.238Z,71.00
2023-04-29T15:10:53.781Z,68.44
2023-04-29T15:14:55.458Z,76.15
2023-04-29T15:18:57.098Z,78.28
2023-04-29T15:22:58.668Z,82.74
2023-04-29T15:27:00.129Z,82.73
2023-04-29T15:31:03.720Z,85.72
2023-04-29T15:35:06.667Z,91.92
2023-04-29T15:39:10.863Z,93.12
2023-04-29T15:43:12.282Z,93.24
2023-04-29T15:47:15.538Z,91.81
2023-04-29T15:51:17.012Z,94.17
2023-04-29T15:55:18.775Z,98.24
2023-04-29T15:59:20.273Z,100.00
2023-04-29T16:03:21.889Z,100.00
2023-04-29T16:07:23.369Z,100.00
2023-04-29T16:11:24.776Z,100.00
2023-04-29T16:15:27.334Z,100.00
2023-04-29T16:19:28.972Z,100.00
2023-04-29T16:23:30.561Z,100.00
2023-04-29T16:27:32.211Z,100.00
2023-04-29T16:31:36.468Z,100.00
2023-04-29T16:35:38.064Z,100.00
2023-04-29T16:39:44.470Z,100.00
2023-04-29T16:43:46.210Z,100.00
2023-04-29T16:47:47.677Z,100.00
2023-04-29T16:51:49.677Z,100.00
2023-04-29T16:55:51.401Z,100.00
2023-04-29T16:59:53.044Z,100.00
2023-04-29T17:03:55.433Z,94.24
2023-04-29T17:07:57.117Z,97.27
2023-04-29T17:11:58.539Z,89.35
2023-04-29T17:16:00.054Z,78.46
2023-04-29T17:20:01.625Z,65.89
2023-04-29T17:24:03.160Z,60.76
2023-04-29T17:28:06.180Z,58.20
2023-04-29T17:32:10.844Z,54.12
2023-04-29T17:36:12.340Z,55.22
2023-04-29T17:40:13.862Z,54.76
2023-04-29T17:44:15.304Z,60.08
2023-04-29T17:48:19.284Z,63.13
2023-04-29T17:52:23.518Z,63.98
2023-04-29T17:56:26.247Z,65.43
2023-04-29T18:00:27.647Z,64.81
2023-04-29T18:04:29.081Z,66.85
2023-04-29T18:08:30.640Z,67.37
2023-04-29T18:12:34.163Z,67.43
2023-04-29T18:16:35.729Z,66.66
2023-04-29T18:20:37.332Z,70.52
2023-04-29T18:24:38.837Z,69.77
2023-04-29T18:28:40.260Z,72.88
2023-04-29T18:32:41.809Z,74.15
2023-04-29T18:36:43.273Z,73.76
2023-04-29T18:40:44.746Z,75.13
2023-04-29T18:44:48.178Z,75.35
2023-04-29T18:48:49.657Z,76.32
2023-04-29T18:52:51.102Z,76.50
2023-04-29T18:56:52.697Z,76.48
2023-04-29T19:00:54.434Z,77.38
2023-04-29T19:04:56.668Z,76.99
2023-04-29T19:08:58.600Z,77.17
2023-04-29T19:13:00.043Z,75.26
2023-04-29T19:17:01.492Z,79.65
2023-04-29T19:21:03.101Z,76.11
2023-04-29T19:25:05.133Z,78.33
2023-04-29T19:29:07.269Z,78.89
2023-04-29T19:33:08.830Z,80.59
2023-04-29T19:37:10.384Z,79.35
2023-04-29T19:41:12.014Z,78.51
2023-04-29T19:45:13.532Z,82.33
2023-04-29T19:49:14.973Z,82.22
2023-04-29T19:53:16.872Z,81.37
2023-04-29T19:57:18.356Z,82.80
2023-04-29T20:01:19.891Z,83.10
2023-04-29T20:05:21.392Z,85.03
2023-04-29T20:09:22.927Z,86.78
2023-04-29T20:13:24.383Z,87.08
2023-04-29T20:17:25.932Z,90.86
2023-04-29T20:21:27.689Z,93.48
2023-04-29T20:25:29.180Z,91.76
2023-04-29T20:29:30.676Z,95.90
2023-04-29T20:33:32.208Z,100.00
2023-04-29T20:37:33.766Z,100.00
2023-04-29T20:41:35.413Z,99.47
2023-04-29T20:45:37.735Z,100.00
2023-04-29T20:49:39.233Z,100.00
2023-04-29T20:53:40.780Z,100.00
2023-04-29T20:57:42.202Z,100.00
2023-04-29T21:01:45.395Z,100.00
2023-04-29T21:05:46.939Z,100.00
2023-04-29T21:09:48.915Z,100.00
2023-04-29T21:13:51.486Z,100.00
2023-04-29T21:17:53.021Z,100.00
2023-04-29T21:21:54.534Z,100.00
2023-04-29T21:25:56.076Z,100.00
2023-04-29T21:29:57.704Z,100.00
2023-04-29T21:34:00.222Z,100.00
2023-04-29T21:38:01.732Z,100.00
2023-04-29T21:42:03.946Z,100.00
2023-04-29T21:46:07.694Z,100.00
2023-04-29T21:50:10.701Z,100.00
2023-04-29T21:54:12.169Z,100.00
2023-04-29T21:58:14.044Z,100.00
2023-04-29T22:02:22.231Z,100.00
2023-04-29T22:06:24.957Z,100.00
2023-04-29T22:10:27.132Z,100.00
2023-04-29T22:14:28.823Z,100.00
2023-04-29T22:18:30.326Z,100.00
2023-04-29T22:22:31.909Z,100.00
2023-04-29T22:26:33.340Z,100.00
2023-04-29T22:30:34.844Z,100.00
2023-04-29T22:34:36.699Z,100.00
2023-04-29T22:38:38.182Z,100.00
2023-04-29T22:42:39.731Z,100.00
2023-04-29T22:46:41.208Z,100.00
2023-04-29T22:50:49.106Z,100.00
2023-04-29T22:54:50.559Z,100.00
2023-04-29T22:58:52.029Z,100.00
2023-04-29T23:02:53.574Z,100.00
2023-04-29T23:06:55.026Z,100.00
2023-04-29T23:10:56.526Z,100.00
2023-04-29T23:14:57.981Z,99.79
2023-04-29T23:18:59.440Z,96.85
2023-04-29T23:23:00.902Z,99.13
2023-04-29T23:27:05.151Z,98.81
2023-04-29T23:31:06.657Z,96.88
2023-04-29T23:35:11.366Z,97.02
2023-04-29T23:39:13.501Z,96.82
2023-04-29T23:43:15.097Z,96.91
2023-04-29T23:47:16.562Z,97.86
2023-04-29T23:51:17.991Z,97.76
2023-04-29T23:55:20.622Z,98.26
2023-04-29T23:59:22.144Z,99.59
